Time;durP1;ratioP1;P1;durP2;ratioP2;P2;SDS_P1;SDS_P2;PMS_P1;PMS_P2;Temp;Humidity;BMP_temperature;BMP_pressure;BME280_temperature;BME280_humidity;BME280_pressure;Samples;Min_cycle;Max_cycle;Signal;HPM_P1;HPM_P2
2022/07/24 00:01:57;;;;;;;;;;;;;;;29.82;39.14;100675.27;105256;1300;61400;-83
2022/07/24 00:04:23;;;;;;;;;;;;;;;29.82;39.24;100676.73;105345;1300;61292;-83
2022/07/24 00:06:49;;;;;;;;;;;;;;;29.82;39.18;100675.64;105353;1299;61217;-83
2022/07/24 00:09:15;;;;;;;;;;;;;;;29.81;39.14;100670.98;105348;1300;61243;-83
2022/07/24 00:11:40;;;;;;;;;;;;;;;29.81;39.12;100675.33;105335;1300;61272;-83
2022/07/24 00:14:05;;;;;;;;;;;;;;;29.81;39.15;100671.90;105300;1300;61240;-82
2022/07/24 00:16:31;;;;;;;;;;;;;;;29.81;39.09;100670.30;105359;1300;61981;-82
2022/07/24 00:18:57;;;;;;;;;;;;;;;29.81;39.20;100668.84;105299;1298;61284;-83
2022/07/24 00:21:22;;;;;;;;;;;;;;;29.81;39.00;100667.41;105246;1300;61247;-83
2022/07/24 00:23:47;;;;;;;;;;;;;;;29.81;39.05;100667.95;105334;1299;61245;-83
2022/07/24 00:26:13;;;;;;;;;;;;;;;29.81;39.35;100670.13;105379;1300;61379;-83
2022/07/24 00:28:38;;;;;;;;;;;;;;;29.80;39.27;100669.82;105200;1300;61247;-83
2022/07/24 00:31:04;;;;;;;;;;;;;;;29.80;39.26;100669.11;105289;1300;61272;-83
2022/07/24 00:33:29;;;;;;;;;;;;;;;29.81;39.23;100665.98;105352;1298;61277;-83
2022/07/24 00:35:55;;;;;;;;;;;;;;;29.81;39.31;100670.51;105293;1299;61323;-83
2022/07/24 00:38:20;;;;;;;;;;;;;;;29.80;39.27;100665.67;105266;1299;61166;-83
2022/07/24 00:40:46;;;;;;;;;;;;;;;29.80;39.42;100663.86;105341;1299;61239;-83
2022/07/24 00:43:12;;;;;;;;;;;;;;;29.80;39.28;100663.33;105241;1299;61419;-83
2022/07/24 00:45:38;;;;;;;;;;;;;;;29.80;39.49;100659.34;105267;1299;61332;-83
2022/07/24 00:48:04;;;;;;;;;;;;;;;29.79;39.59;100662.84;105290;1299;61323;-83
2022/07/24 00:50:30;;;;;;;;;;;;;;;29.79;39.40;100666.48;105312;1299;62905;-83
2022/07/24 00:52:56;;;;;;;;;;;;;;;29.79;39.33;100666.11;105269;1300;61394;-83
2022/07/24 00:55:21;;;;;;;;;;;;;;;29.79;39.45;100660.73;105312;1300;61244;-83
2022/07/24 00:57:48;;;;;;;;;;;;;;;29.79;39.35;100659.65;105253;1300;61361;-83
2022/07/24 01:00:14;;;;;;;;;;;;;;;29.78;39.36;100658.81;105308;1299;61179;-83
2022/07/24 01:02:41;;;;;;;;;;;;;;;29.78;39.33;100658.05;105227;1299;61306;-83
2022/07/24 01:05:07;;;;;;;;;;;;;;;29.78;39.44;100659.73;105346;1298;62112;-83
2022/07/24 01:07:33;;;;;;;;;;;;;;;29.78;39.41;100655.20;105281;1300;61186;-83
2022/07/24 01:09:58;;;;;;;;;;;;;;;29.78;39.49;100654.11;105334;1297;61381;-83
2022/07/24 01:12:24;;;;;;;;;;;;;;;29.78;39.45;100653.73;105244;1298;61264;-83
2022/07/24 01:14:49;;;;;;;;;;;;;;;29.78;39.49;100655.91;105336;1298;61230;-83
2022/07/24 01:17:15;;;;;;;;;;;;;;;29.78;39.55;100658.49;105324;1298;61336;-83
2022/07/24 01:19:40;;;;;;;;;;;;;;;29.78;39.33;100657.95;105285;1300;61760;-83
2022/07/24 01:22:05;;;;;;;;;;;;;;;29.78;39.43;100663.59;105360;1300;61268;-83
2022/07/24 01:24:31;;;;;;;;;;;;;;;29.78;39.40;100661.42;105322;1298;61343;-83
2022/07/24 01:26:58;;;;;;;;;;;;;;;29.78;39.60;100657.20;105338;1298;62380;-83
2022/07/24 01:29:23;;;;;;;;;;;;;;;29.78;39.52;100651.45;105301;1300;61279;-83
2022/07/24 01:31:49;;;;;;;;;;;;;;;29.78;39.58;100657.23;105246;1299;61253;-83
2022/07/24 01:34:14;;;;;;;;;;;;;;;29.77;39.64;100660.20;105280;1300;61278;-83
2022/07/24 01:36:40;;;;;;;;;;;;;;;29.77;39.48;100657.52;105262;1300;61282;-83
2022/07/24 01:39:05;;;;;;;;;;;;;;;29.77;39.48;100652.22;105277;1300;62018;-83
2022/07/24 01:41:32;;;;;;;;;;;;;;;29.77;39.44;100648.81;105344;1299;61348;-83
2022/07/24 01:43:57;;;;;;;;;;;;;;;29.76;39.58;100648.64;105337;1299;61326;-83
2022/07/24 01:46:23;;;;;;;;;;;;;;;29.76;39.78;100640.17;105280;1300;61387;-83
2022/07/24 01:48:48;;;;;;;;;;;;;;;29.76;39.43;100636.94;105286;1300;61390;-83
2022/07/24 01:51:14;;;;;;;;;;;;;;;29.76;39.63;100632.38;105301;1299;61226;-83
2022/07/24 01:53:39;;;;;;;;;;;;;;;29.76;39.68;100632.05;105364;1299;61944;-83
2022/07/24 01:56:05;;;;;;;;;;;;;;;29.75;39.34;100631.18;105313;1300;61149;-82
2022/07/24 01:58:31;;;;;;;;;;;;;;;29.75;39.45;100627.71;105306;1298;61275;-83
2022/07/24 02:00:56;;;;;;;;;;;;;;;29.75;39.63;100628.98;105272;1300;61222;-83
2022/07/24 02:03:22;;;;;;;;;;;;;;;29.75;39.73;100625.92;105327;1298;61361;-83
2022/07/24 02:05:47;;;;;;;;;;;;;;;29.76;39.54;100617.89;105295;1298;61271;-83
2022/07/24 02:08:13;;;;;;;;;;;;;;;29.75;39.43;100615.95;105262;1300;61249;-83
2022/07/24 02:10:39;;;;;;;;;;;;;;;29.75;39.70;100612.92;105257;1300;61502;-83
2022/07/24 02:13:05;;;;;;;;;;;;;;;29.75;39.55;100610.36;105306;1298;61175;-83
2022/07/24 02:15:30;;;;;;;;;;;;;;;29.75;39.72;100613.09;105337;1299;61281;-83
2022/07/24 02:17:56;;;;;;;;;;;;;;;29.75;39.66;100614.70;105310;1300;61272;-83
2022/07/24 02:20:23;;;;;;;;;;;;;;;29.75;39.58;100608.58;105327;1298;61143;-83
2022/07/24 02:22:49;;;;;;;;;;;;;;;29.74;39.40;100606.27;105394;1299;61387;-83
2022/07/24 02:25:15;;;;;;;;;;;;;;;29.74;39.60;100603.37;105329;1298;72707;-83
2022/07/24 02:27:40;;;;;;;;;;;;;;;29.75;39.75;100604.21;105253;1300;61297;-83
2022/07/24 02:30:07;;;;;;;;;;;;;;;29.74;39.71;100602.11;105291;1300;61239;-83
2022/07/24 02:32:34;;;;;;;;;;;;;;;29.74;39.57;100607.02;105326;1300;61348;-83
2022/07/24 02:35:00;;;;;;;;;;;;;;;29.74;39.51;100603.95;105316;1299;61432;-83
2022/07/24 02:37:25;;;;;;;;;;;;;;;29.74;39.73;100604.84;105284;1299;61251;-82
2022/07/24 02:39:50;;;;;;;;;;;;;;;29.74;39.49;100603.08;105295;1300;61436;-82
2022/07/24 02:42:16;;;;;;;;;;;;;;;29.74;39.63;100601.95;105350;1300;61278;-82
2022/07/24 02:44:41;;;;;;;;;;;;;;;29.74;39.56;100599.98;105324;1298;61354;-81
2022/07/24 02:47:07;;;;;;;;;;;;;;;29.73;39.68;100596.57;105291;1299;61307;-82
2022/07/24 02:49:32;;;;;;;;;;;;;;;29.74;39.67;100597.63;105280;1300;61247;-81
2022/07/24 02:51:58;;;;;;;;;;;;;;;29.74;39.47;100594.20;105337;1300;61266;-81
2022/07/24 02:54:23;;;;;;;;;;;;;;;29.73;39.61;100589.33;105318;1299;61255;-81
2022/07/24 02:56:49;;;;;;;;;;;;;;;29.73;39.62;100584.33;105365;1300;61268;-81
2022/07/24 02:59:14;;;;;;;;;;;;;;;29.73;39.70;100586.64;105337;1300;61325;-81
2022/07/24 03:01:40;;;;;;;;;;;;;;;29.73;39.59;100585.02;105350;1299;61307;-82
2022/07/24 03:04:05;;;;;;;;;;;;;;;29.73;39.61;100585.38;105378;1299;61833;-83
2022/07/24 03:06:31;;;;;;;;;;;;;;;29.73;39.74;100584.84;105386;1299;61266;-82
2022/07/24 03:08:56;;;;;;;;;;;;;;;29.73;39.59;100590.42;105368;1300;61371;-82
2022/07/24 03:11:21;;;;;;;;;;;;;;;29.73;39.63;100590.65;105232;1300;61278;-82
2022/07/24 03:13:47;;;;;;;;;;;;;;;29.73;39.68;100594.62;105265;1300;61247;-81
2022/07/24 03:16:12;;;;;;;;;;;;;;;29.73;39.68;100594.09;105233;1300;61277;-81
2022/07/24 03:18:38;;;;;;;;;;;;;;;29.73;39.66;100597.15;105274;1300;61348;-81
2022/07/24 03:21:03;;;;;;;;;;;;;;;29.73;39.69;100595.92;105275;1300;61760;-81
2022/07/24 03:23:29;;;;;;;;;;;;;;;29.73;39.74;100598.45;105297;1300;61296;-82
2022/07/24 03:25:54;;;;;;;;;;;;;;;29.72;39.53;100599.18;105220;1300;61371;-81
2022/07/24 03:28:21;;;;;;;;;;;;;;;29.73;39.64;100595.90;105329;1300;61962;-81
2022/07/24 03:30:46;;;;;;;;;;;;;;;29.73;39.78;100595.39;105372;1300;61253;-81
2022/07/24 03:33:12;;;;;;;;;;;;;;;29.73;39.86;100597.02;105311;1300;61288;-81
2022/07/24 03:35:37;;;;;;;;;;;;;;;29.73;39.68;100599.13;105336;1300;73642;-81
2022/07/24 03:38:03;;;;;;;;;;;;;;;29.73;39.52;100596.02;105338;1299;61264;-80
2022/07/24 03:40:28;;;;;;;;;;;;;;;29.73;39.77;100593.86;105361;1300;61286;-81
2022/07/24 03:42:54;;;;;;;;;;;;;;;29.73;39.72;100588.45;105338;1298;61238;-81
2022/07/24 03:45:20;;;;;;;;;;;;;;;29.73;39.58;100592.43;105339;1299;61332;-81
2022/07/24 03:47:45;;;;;;;;;;;;;;;29.73;39.73;100591.71;105268;1300;73682;-81
2022/07/24 03:50:10;;;;;;;;;;;;;;;29.73;39.59;100589.51;105353;1300;61331;-81
2022/07/24 03:52:36;;;;;;;;;;;;;;;29.73;39.71;100588.23;105344;1299;61259;-81
2022/07/24 03:55:01;;;;;;;;;;;;;;;29.73;39.76;100582.98;105297;1299;61339;-81
2022/07/24 03:57:27;;;;;;;;;;;;;;;29.73;39.71;100588.95;105356;1300;61262;-81
2022/07/24 03:59:52;;;;;;;;;;;;;;;29.73;39.82;100590.08;105351;1300;61357;-81
2022/07/24 04:02:18;;;;;;;;;;;;;;;29.73;39.70;100590.59;105255;1299;61262;-81
2022/07/24 04:04:43;;;;;;;;;;;;;;;29.73;39.84;100594.05;105287;1299;61269;-81
2022/07/24 04:07:09;;;;;;;;;;;;;;;29.74;39.83;100590.02;105348;1299;61138;-81
2022/07/24 04:09:35;;;;;;;;;;;;;;;29.73;39.77;100591.30;105251;1300;61281;-81
2022/07/24 04:12:00;;;;;;;;;;;;;;;29.74;39.69;100586.92;105391;1298;61275;-82
2022/07/24 04:14:26;;;;;;;;;;;;;;;29.74;39.71;100586.21;105359;1300;61393;-82
2022/07/24 04:16:51;;;;;;;;;;;;;;;29.73;39.90;100592.02;105251;1299;61252;-82
2022/07/24 04:19:19;;;;;;;;;;;;;;;29.74;39.79;100591.23;105278;1299;61226;-82
2022/07/24 04:21:44;;;;;;;;;;;;;;;29.74;39.80;100595.02;105346;1299;61185;-81
2022/07/24 04:24:10;;;;;;;;;;;;;;;29.74;39.81;100591.53;105322;1300;61281;-81
2022/07/24 04:26:35;;;;;;;;;;;;;;;29.75;39.86;100584.22;105265;1299;61224;-82
2022/07/24 04:29:01;;;;;;;;;;;;;;;29.75;39.75;100585.85;105346;1300;61275;-82
2022/07/24 04:31:26;;;;;;;;;;;;;;;29.75;39.77;100581.13;105334;1300;61278;-81
2022/07/24 04:33:52;;;;;;;;;;;;;;;29.76;39.89;100583.21;105284;1300;61201;-81
2022/07/24 04:36:17;;;;;;;;;;;;;;;29.76;39.83;100583.21;105335;1299;61340;-81
2022/07/24 04:38:43;;;;;;;;;;;;;;;29.76;39.72;100586.13;105234;1299;61278;-81
2022/07/24 04:41:08;;;;;;;;;;;;;;;29.77;39.72;100586.41;105397;1299;61220;-81
2022/07/24 04:43:34;;;;;;;;;;;;;;;29.76;39.75;100581.34;105328;1299;61274;-81
2022/07/24 04:45:59;;;;;;;;;;;;;;;29.77;39.82;100579.29;105336;1300;61278;-81
2022/07/24 04:48:25;;;;;;;;;;;;;;;29.78;39.81;100577.25;105258;1300;61312;-81
2022/07/24 04:50:51;;;;;;;;;;;;;;;29.78;39.83;100579.73;105270;1300;61390;-81
2022/07/24 04:53:17;;;;;;;;;;;;;;;29.78;39.62;100578.45;105336;1300;61390;-81
2022/07/24 04:55:42;;;;;;;;;;;;;;;29.79;39.95;100581.63;105205;1299;61258;-82
2022/07/24 04:58:07;;;;;;;;;;;;;;;29.80;39.83;100581.52;105137;1298;61272;-82
2022/07/24 05:00:33;;;;;;;;;;;;;;;29.81;40.00;100583.44;105103;1300;61248;-82
2022/07/24 05:02:58;;;;;;;;;;;;;;;29.82;39.81;100585.33;105151;1298;61303;-81
2022/07/24 05:05:25;;;;;;;;;;;;;;;29.82;39.93;100588.36;105112;1300;61211;-81
2022/07/24 05:07:50;;;;;;;;;;;;;;;29.84;39.84;100587.48;105067;1298;61192;-81
2022/07/24 05:10:16;;;;;;;;;;;;;;;29.84;39.93;100584.28;105145;1298;61407;-81
2022/07/24 05:12:41;;;;;;;;;;;;;;;29.85;39.98;100581.46;105115;1299;61300;-82
2022/07/24 05:15:07;;;;;;;;;;;;;;;29.86;39.75;100574.84;105135;1299;61287;-82
2022/07/24 05:17:33;;;;;;;;;;;;;;;29.87;40.02;100572.54;105032;1300;61483;-82
2022/07/24 05:20:03;;;;;;;;;;;;;;;29.88;39.76;100570.59;105094;1299;73718;-82
2022/07/24 05:22:29;;;;;;;;;;;;;;;29.89;39.98;100574.84;105105;1300;76091;-82
2022/07/24 05:24:54;;;;;;;;;;;;;;;29.91;40.01;100571.02;105096;1300;61292;-82
2022/07/24 05:27:19;;;;;;;;;;;;;;;29.92;39.90;100565.34;105305;1300;61249;-81
2022/07/24 05:29:46;;;;;;;;;;;;;;;29.93;39.99;100561.81;105332;1300;61275;-81
2022/07/24 05:32:12;;;;;;;;;;;;;;;29.93;39.91;100564.05;105327;1297;61282;-81
2022/07/24 05:34:37;;;;;;;;;;;;;;;29.95;39.83;100565.41;105405;1300;61301;-81
2022/07/24 05:37:03;;;;;;;;;;;;;;;29.95;40.05;100567.01;105286;1299;61106;-81
2022/07/24 05:39:30;;;;;;;;;;;;;;;29.95;39.93;100562.05;105273;1300;61308;-81
2022/07/24 05:41:55;;;;;;;;;;;;;;;29.96;39.90;100559.66;105326;1300;61400;-81
2022/07/24 05:44:20;;;;;;;;;;;;;;;29.97;39.89;100558.13;105371;1300;61341;-81
2022/07/24 05:46:46;;;;;;;;;;;;;;;29.97;39.90;100563.13;105335;1299;61249;-81
2022/07/24 05:49:11;;;;;;;;;;;;;;;29.97;39.92;100561.90;105366;1299;61365;-81
2022/07/24 05:51:37;;;;;;;;;;;;;;;29.98;39.88;100559.62;105330;1300;61941;-81
2022/07/24 05:54:02;;;;;;;;;;;;;;;29.98;39.78;100557.45;105339;1299;61950;-81
2022/07/24 05:56:29;;;;;;;;;;;;;;;29.99;39.83;100554.98;105347;1298;61196;-81
2022/07/24 05:58:54;;;;;;;;;;;;;;;29.99;39.90;100554.20;105289;1299;61281;-81
2022/07/24 06:01:20;;;;;;;;;;;;;;;30.00;39.81;100553.05;105360;1299;61329;-81
2022/07/24 06:03:45;;;;;;;;;;;;;;;30.00;39.83;100554.06;105403;1298;61232;-81
2022/07/24 06:06:11;;;;;;;;;;;;;;;30.00;39.86;100551.15;105337;1300;73966;-81
2022/07/24 06:08:36;;;;;;;;;;;;;;;30.01;39.90;100553.38;105323;1298;61239;-81
2022/07/24 06:11:02;;;;;;;;;;;;;;;30.02;39.92;100555.51;105267;1300;61931;-81
2022/07/24 06:13:27;;;;;;;;;;;;;;;30.02;39.68;100559.26;105332;1299;61278;-81
2022/07/24 06:15:53;;;;;;;;;;;;;;;30.03;39.68;100552.66;105393;1299;61287;-81
2022/07/24 06:18:18;;;;;;;;;;;;;;;30.03;39.68;100549.95;105292;1300;75044;-82
2022/07/24 06:20:44;;;;;;;;;;;;;;;30.03;39.83;100543.38;105266;1297;61281;-82
2022/07/24 06:23:09;;;;;;;;;;;;;;;30.04;39.92;100546.50;105310;1300;61348;-82
2022/07/24 06:25:35;;;;;;;;;;;;;;;30.04;39.81;100541.94;105269;1298;61371;-81
2022/07/24 06:28:00;;;;;;;;;;;;;;;30.05;39.84;100534.23;104765;1299;820878;-81
2022/07/24 06:30:26;;;;;;;;;;;;;;;30.05;39.86;100536.92;105337;1299;61401;-81
2022/07/24 06:32:52;;;;;;;;;;;;;;;30.06;39.98;100533.45;105268;1300;61226;-81
2022/07/24 06:35:17;;;;;;;;;;;;;;;30.06;39.87;100527.60;105272;1299;61262;-81
2022/07/24 06:37:43;;;;;;;;;;;;;;;30.07;39.71;100523.73;105290;1300;61284;-81
2022/07/24 06:40:09;;;;;;;;;;;;;;;30.07;39.80;100522.20;105259;1300;61290;-81
2022/07/24 06:42:34;;;;;;;;;;;;;;;30.07;39.89;100520.40;105354;1300;61297;-81
2022/07/24 06:45:00;;;;;;;;;;;;;;;30.07;39.95;100518.56;105267;1300;74912;-81
2022/07/24 06:47:26;;;;;;;;;;;;;;;30.09;39.77;100513.89;105320;1298;61311;-81
2022/07/24 06:49:52;;;;;;;;;;;;;;;30.08;39.84;100508.48;105258;1300;61282;-81
2022/07/24 06:52:17;;;;;;;;;;;;;;;30.09;39.76;100509.50;105228;1300;61355;-81
2022/07/24 06:54:43;;;;;;;;;;;;;;;30.10;39.86;100508.17;105267;1300;61186;-81
2022/07/24 06:57:08;;;;;;;;;;;;;;;30.10;39.80;100506.30;105242;1300;61433;-81
2022/07/24 06:59:34;;;;;;;;;;;;;;;30.10;39.84;100505.92;105288;1300;61397;-81
2022/07/24 07:02:01;;;;;;;;;;;;;;;30.11;39.87;100507.89;105339;1298;61254;-81
2022/07/24 07:04:26;;;;;;;;;;;;;;;30.12;39.92;100505.61;105287;1298;61339;-81
2022/07/24 07:06:52;;;;;;;;;;;;;;;30.12;39.77;100506.50;105282;1300;61394;-81
2022/07/24 07:09:17;;;;;;;;;;;;;;;30.12;39.89;100505.61;105271;1300;61318;-81
2022/07/24 07:11:43;;;;;;;;;;;;;;;30.12;39.89;100509.18;105280;1300;61421;-81
2022/07/24 07:14:08;;;;;;;;;;;;;;;30.12;39.81;100505.98;105387;1300;61692;-81
2022/07/24 07:16:34;;;;;;;;;;;;;;;30.12;40.00;100501.77;105206;1299;59377;-81
2022/07/24 07:18:59;;;;;;;;;;;;;;;30.12;39.92;100505.02;105289;1299;61397;-81
2022/07/24 07:21:25;;;;;;;;;;;;;;;30.12;39.94;100498.66;105230;1299;61230;-81
2022/07/24 07:23:52;;;;;;;;;;;;;;;30.12;39.87;100495.20;105320;1298;61278;-81
2022/07/24 07:26:18;;;;;;;;;;;;;;;30.12;39.96;100492.30;105349;1300;61286;-81
2022/07/24 07:28:43;;;;;;;;;;;;;;;30.13;39.89;100493.31;105236;1300;61230;-81
2022/07/24 07:31:09;;;;;;;;;;;;;;;30.13;40.01;100488.79;105359;1300;61413;-81
2022/07/24 07:33:34;;;;;;;;;;;;;;;30.13;39.95;100490.59;105370;1298;62014;-81
2022/07/24 07:36:00;;;;;;;;;;;;;;;30.13;39.90;100489.70;105310;1299;61234;-81
2022/07/24 07:38:26;;;;;;;;;;;;;;;30.13;39.92;100489.50;105342;1298;61361;-81
2022/07/24 07:40:51;;;;;;;;;;;;;;;30.12;39.91;100488.84;105359;1300;61269;-81
2022/07/24 07:43:17;;;;;;;;;;;;;;;30.13;39.95;100490.02;105284;1300;61374;-81
2022/07/24 07:45:42;;;;;;;;;;;;;;;30.13;39.86;100488.55;105265;1300;61318;-81
2022/07/24 07:48:08;;;;;;;;;;;;;;;30.13;40.00;100481.27;105365;1298;61268;-81
2022/07/24 07:50:33;;;;;;;;;;;;;;;30.13;39.95;100480.16;105311;1299;61265;-81
2022/07/24 07:52:59;;;;;;;;;;;;;;;30.14;39.88;100478.86;105278;1300;61409;-81
2022/07/24 07:55:24;;;;;;;;;;;;;;;30.14;39.98;100477.60;105356;1299;61239;-81
2022/07/24 07:57:49;;;;;;;;;;;;;;;30.14;39.85;100476.13;105354;1299;61246;-81
2022/07/24 08:00:15;;;;;;;;;;;;;;;30.15;39.96;100474.23;105344;1298;61246;-81
2022/07/24 08:02:41;;;;;;;;;;;;;;;30.15;39.73;100470.37;105347;1299;61326;-81
2022/07/24 08:05:06;;;;;;;;;;;;;;;30.15;40.00;100469.70;105259;1300;61409;-81
2022/07/24 08:07:32;;;;;;;;;;;;;;;30.15;39.96;100470.68;105417;1300;61276;-81
2022/07/24 08:09:57;;;;;;;;;;;;;;;30.16;40.08;100471.02;105292;1300;61313;-81
2022/07/24 08:12:23;;;;;;;;;;;;;;;30.15;39.90;100476.84;105254;1300;61254;-81
2022/07/24 08:14:48;;;;;;;;;;;;;;;30.16;39.96;100478.40;105185;1300;61257;-81
2022/07/24 08:17:14;;;;;;;;;;;;;;;30.16;39.85;100482.04;105214;1300;61393;-81
2022/07/24 08:19:40;;;;;;;;;;;;;;;30.16;39.96;100479.11;105279;1300;61272;-81
2022/07/24 08:22:06;;;;;;;;;;;;;;;30.17;39.94;100483.58;105399;1299;61313;-81
2022/07/24 08:24:32;;;;;;;;;;;;;;;30.17;40.00;100485.24;105283;1300;61393;-81
2022/07/24 08:26:58;;;;;;;;;;;;;;;30.16;40.00;100487.80;105225;1299;73723;-82
2022/07/24 08:29:24;;;;;;;;;;;;;;;30.17;39.88;100489.20;105264;1298;61354;-82
2022/07/24 08:31:49;;;;;;;;;;;;;;;30.17;39.91;100487.52;105212;1300;61150;-82
2022/07/24 08:34:15;;;;;;;;;;;;;;;30.17;39.79;100488.40;105315;1299;61400;-82
2022/07/24 08:36:40;;;;;;;;;;;;;;;30.18;39.88;100490.54;105278;1299;61299;-82
2022/07/24 08:39:06;;;;;;;;;;;;;;;30.18;39.92;100490.30;105338;1300;61261;-81
2022/07/24 08:41:33;;;;;;;;;;;;;;;30.18;39.95;100487.83;105286;1298;61491;-81
2022/07/24 08:43:59;;;;;;;;;;;;;;;30.18;39.95;100486.73;105297;1300;61151;-82
2022/07/24 08:46:26;;;;;;;;;;;;;;;30.18;39.94;100487.07;105225;1300;61282;-81
2022/07/24 08:48:51;;;;;;;;;;;;;;;30.18;39.85;100485.09;105267;1300;61170;-82
2022/07/24 08:51:16;;;;;;;;;;;;;;;30.18;39.81;100487.77;105249;1300;61701;-82
2022/07/24 08:53:42;;;;;;;;;;;;;;;30.18;39.83;100482.75;105330;1298;61261;-82
2022/07/24 08:56:08;;;;;;;;;;;;;;;30.18;39.91;100479.11;105327;1298;61341;-81
2022/07/24 08:58:36;;;;;;;;;;;;;;;30.18;39.85;100480.88;105356;1300;61365;-81
2022/07/24 09:01:01;;;;;;;;;;;;;;;30.18;39.83;100480.34;105278;1300;75062;-81
2022/07/24 09:03:26;;;;;;;;;;;;;;;30.18;39.67;100476.89;105317;1300;61262;-81
2022/07/24 09:05:56;;;;;;;;;;;;;;;30.18;39.74;100473.42;105291;1300;61961;-81
2022/07/24 09:08:21;;;;;;;;;;;;;;;30.19;39.94;100478.29;105352;1300;61239;-81
2022/07/24 09:10:58;;;;;;;;;;;;;;;30.18;39.94;100472.13;105280;1300;61255;-81
2022/07/24 09:13:26;;;;;;;;;;;;;;;30.18;39.89;100472.73;105308;1300;75952;-82
2022/07/24 09:15:51;;;;;;;;;;;;;;;30.18;39.71;100472.16;105297;1300;61158;-82
2022/07/24 09:18:30;;;;;;;;;;;;;;;30.18;39.80;100471.59;105348;1300;61371;-81
2022/07/24 09:20:56;;;;;;;;;;;;;;;30.19;39.80;100472.67;105281;1299;73206;-81
2022/07/24 09:23:21;;;;;;;;;;;;;;;30.19;39.91;100473.31;105266;1300;61380;-81
2022/07/24 09:25:51;;;;;;;;;;;;;;;30.19;39.96;100473.86;105330;1300;61259;-82
2022/07/24 09:28:16;;;;;;;;;;;;;;;30.20;39.97;100471.06;105289;1298;61872;-82
2022/07/24 09:30:42;;;;;;;;;;;;;;;30.20;39.82;100464.36;105390;1300;61292;-82
2022/07/24 09:33:14;;;;;;;;;;;;;;;30.19;39.73;100462.21;105289;1300;61245;-82
2022/07/24 09:35:49;;;;;;;;;;;;;;;30.20;39.73;100463.57;105373;1299;61161;-82
2022/07/24 09:38:15;;;;;;;;;;;;;;;30.20;39.67;100462.14;105239;1300;61154;-83
2022/07/24 09:40:44;;;;;;;;;;;;;;;30.21;39.75;100456.64;105317;1300;72916;-84
2022/07/24 09:43:38;;;;;;;;;;;;;;;30.20;39.64;100458.10;105350;1300;75119;-84
2022/07/24 09:46:10;;;;;;;;;;;;;;;30.21;39.67;100456.98;104842;1306;61041;-84
2022/07/24 09:48:38;;;;;;;;;;;;;;;30.21;39.78;100454.42;104745;1305;61138;-84
2022/07/24 09:51:07;;;;;;;;;;;;;;;30.21;39.78;100452.80;104823;1305;72804;-84
2022/07/24 09:53:33;;;;;;;;;;;;;;;30.21;39.94;100449.57;104883;1304;74522;-84
2022/07/24 09:56:06;;;;;;;;;;;;;;;30.21;39.84;100446.77;104736;1304;59455;-82
2022/07/24 09:58:32;;;;;;;;;;;;;;;30.21;39.78;100449.83;104556;1305;61112;-82
2022/07/24 10:01:00;;;;;;;;;;;;;;;30.21;39.78;100447.30;104716;1306;72894;-82
2022/07/24 10:03:26;;;;;;;;;;;;;;;30.22;39.69;100445.60;104478;1308;75765;-82
2022/07/24 10:05:56;;;;;;;;;;;;;;;30.22;39.75;100440.90;104416;1309;62912;-82
2022/07/24 10:08:22;;;;;;;;;;;;;;;30.22;39.69;100442.33;104526;1308;61145;-82
2022/07/24 10:10:49;;;;;;;;;;;;;;;30.22;39.75;100437.02;104468;1308;61376;-81
2022/07/24 10:13:15;;;;;;;;;;;;;;;30.22;39.67;100437.06;104489;1308;74745;-81
2022/07/24 10:16:03;;;;;;;;;;;;;;;30.22;39.69;100435.63;104371;1308;61290;-81
2022/07/24 10:18:47;;;;;;;;;;;;;;;30.22;39.82;100433.59;104372;1308;61213;-84
2022/07/24 10:21:16;;;;;;;;;;;;;;;30.22;39.79;100433.55;104470;1308;72805;-84
2022/07/24 10:23:51;;;;;;;;;;;;;;;30.22;39.95;100431.04;104834;1302;75760;-84
2022/07/24 10:26:20;;;;;;;;;;;;;;;30.22;39.68;100427.42;105068;1302;61342;-84
2022/07/24 10:28:46;;;;;;;;;;;;;;;30.22;39.67;100425.21;104922;1303;61262;-84
2022/07/24 10:31:13;;;;;;;;;;;;;;;30.22;39.71;100426.16;104869;1303;61372;-84
2022/07/24 10:33:39;;;;;;;;;;;;;;;30.22;39.72;100423.83;104883;1303;61176;-82
2022/07/24 10:36:08;;;;;;;;;;;;;;;30.22;39.64;100421.44;105298;1298;61841;-82
2022/07/24 10:38:34;;;;;;;;;;;;;;;30.22;39.68;100414.73;105279;1299;61172;-82
2022/07/24 10:41:02;;;;;;;;;;;;;;;30.22;39.76;100412.59;105281;1300;61288;-81
2022/07/24 10:43:27;;;;;;;;;;;;;;;30.22;39.84;100410.20;105272;1300;75517;-81
2022/07/24 10:45:53;;;;;;;;;;;;;;;30.22;39.73;100402.79;105333;1300;62128;-81
2022/07/24 10:48:26;;;;;;;;;;;;;;;30.21;39.82;100403.17;105381;1300;61326;-81
2022/07/24 10:51:03;;;;;;;;;;;;;;;30.22;39.89;100400.61;105344;1300;72719;-82
2022/07/24 10:53:28;;;;;;;;;;;;;;;30.22;39.65;100396.42;105335;1300;75848;-82
2022/07/24 10:56:12;;;;;;;;;;;;;;;30.22;39.66;100394.39;105358;1300;61943;-82
2022/07/24 10:58:50;;;;;;;;;;;;;;;30.22;39.69;100395.34;105350;1299;61153;-82
2022/07/24 11:01:29;;;;;;;;;;;;;;;30.22;39.59;100392.24;105316;1300;72849;-82
2022/07/24 11:03:54;;;;;;;;;;;;;;;30.22;39.67;100395.30;105307;1300;75787;-82
2022/07/24 11:06:34;;;;;;;;;;;;;;;30.22;39.59;100388.95;105195;1300;61356;-82
2022/07/24 11:09:01;;;;;;;;;;;;;;;30.23;39.61;100391.79;105185;1300;61233;-82
2022/07/24 11:11:27;;;;;;;;;;;;;;;30.23;39.57;100387.27;105282;1300;61194;-82
2022/07/24 11:13:53;;;;;;;;;;;;;;;30.23;39.55;100384.15;105257;1300;61257;-82
2022/07/24 11:16:19;;;;;;;;;;;;;;;30.23;39.76;100384.11;105127;1300;61293;-82
2022/07/24 11:18:51;;;;;;;;;;;;;;;30.23;39.70;100382.27;105317;1300;61293;-81
2022/07/24 11:21:31;;;;;;;;;;;;;;;30.24;39.70;100379.52;105274;1300;72666;-81
2022/07/24 11:24:22;;;;;;;;;;;;;;;30.23;39.76;100374.64;105278;1300;76166;-81
2022/07/24 11:26:51;;;;;;;;;;;;;;;30.24;39.65;100375.63;105070;1300;61005;-82
2022/07/24 11:29:23;;;;;;;;;;;;;;;30.24;39.69;100371.63;105091;1300;61133;-82
2022/07/24 11:32:00;;;;;;;;;;;;;;;30.24;39.68;100364.35;105161;1300;73780;-84
2022/07/24 11:34:26;;;;;;;;;;;;;;;30.24;39.71;100360.88;105037;1300;74821;-84
2022/07/24 11:36:52;;;;;;;;;;;;;;;30.25;39.78;100362.60;105099;1300;61232;-84
2022/07/24 11:39:21;;;;;;;;;;;;;;;30.26;39.79;100355.46;105519;1300;61552;-84
2022/07/24 11:41:50;;;;;;;;;;;;;;;30.26;39.77;100356.66;105362;1299;73794;-84
2022/07/24 11:44:29;;;;;;;;;;;;;;;30.27;39.93;100354.77;105234;1299;73533;-83
2022/07/24 11:47:00;;;;;;;;;;;;;;;30.28;39.65;100349.64;105276;1297;61177;-83
2022/07/24 11:49:26;;;;;;;;;;;;;;;30.28;39.64;100345.85;105293;1299;61277;-83
2022/07/24 11:51:52;;;;;;;;;;;;;;;30.27;39.57;100342.80;105288;1300;61367;-83
2022/07/24 11:54:24;;;;;;;;;;;;;;;30.27;39.61;100343.89;105340;1300;61313;-83
2022/07/24 11:56:50;;;;;;;;;;;;;;;30.27;39.65;100341.33;105387;1300;61306;-83
2022/07/24 11:59:29;;;;;;;;;;;;;;;30.28;39.66;100338.23;105352;1299;61352;-83
2022/07/24 12:02:07;;;;;;;;;;;;;;;30.27;39.65;100334.66;105264;1299;73786;-83
2022/07/24 12:04:32;;;;;;;;;;;;;;;30.28;39.66;100334.42;105323;1300;75291;-84
2022/07/24 12:06:58;;;;;;;;;;;;;;;30.28;39.60;100330.07;105362;1299;61274;-82
2022/07/24 12:09:24;;;;;;;;;;;;;;;30.27;39.61;100327.20;105226;1300;61226;-82
2022/07/24 12:11:49;;;;;;;;;;;;;;;30.28;39.75;100328.27;105278;1300;61448;-82
2022/07/24 12:14:16;;;;;;;;;;;;;;;30.27;39.58;100322.98;105289;1300;61309;-82
2022/07/24 12:16:41;;;;;;;;;;;;;;;30.28;39.59;100319.52;105326;1300;74664;-82
2022/07/24 12:19:17;;;;;;;;;;;;;;;30.28;39.69;100319.17;105269;1299;61407;-82
2022/07/24 12:21:43;;;;;;;;;;;;;;;30.28;39.52;100316.80;105326;1300;61281;-82
2022/07/24 12:24:08;;;;;;;;;;;;;;;30.29;39.58;100319.06;105193;1302;61249;-82